createdAt,value
2023-05-17T00:00:03.587Z,100.00
2023-05-17T00:02:32.377Z,100.00
2023-05-17T00:04:59.700Z,100.00
2023-05-17T00:07:27.185Z,100.00
2023-05-17T00:09:54.919Z,100.00
2023-05-17T00:12:22.182Z,100.00
2023-05-17T00:14:49.501Z,100.00
2023-05-17T00:17:16.886Z,100.00
2023-05-17T00:19:44.344Z,100.00
2023-05-17T00:22:11.805Z,100.00
2023-05-17T00:24:39.153Z,100.00
2023-05-17T00:27:06.560Z,100.00
2023-05-17T00:29:33.977Z,100.00
2023-05-17T00:32:01.434Z,100.00
2023-05-17T00:34:29.025Z,100.00
2023-05-17T00:36:56.765Z,100.00
2023-05-17T00:39:24.235Z,100.00
2023-05-17T00:41:51.750Z,100.00
2023-05-17T00:44:19.069Z,100.00
2023-05-17T00:46:46.979Z,100.00
2023-05-17T00:49:14.333Z,100.00
2023-05-17T00:51:42.140Z,100.00
2023-05-17T00:54:11.035Z,100.00
2023-05-17T00:56:39.082Z,100.00
2023-05-17T00:59:06.902Z,100.00
2023-05-17T01:01:36.142Z,100.00
2023-05-17T01:04:04.057Z,100.00
2023-05-17T01:06:31.689Z,100.00
2023-05-17T01:08:59.244Z,100.00
2023-05-17T01:11:40.034Z,100.00
2023-05-17T01:14:34.511Z,100.00
2023-05-17T01:17:06.784Z,100.00
2023-05-17T01:19:54.480Z,100.00
2023-05-17T01:22:51.763Z,100.00
2023-05-17T01:25:42.190Z,100.00
2023-05-17T01:28:11.935Z,100.00
2023-05-17T01:30:41.808Z,100.00
2023-05-17T01:33:10.805Z,100.00
2023-05-17T01:35:38.192Z,100.00
2023-05-17T01:38:05.606Z,100.00
2023-05-17T01:40:37.274Z,100.00
2023-05-17T01:43:21.801Z,100.00
2023-05-17T01:46:04.929Z,100.00
2023-05-17T01:48:37.325Z,100.00
2023-05-17T01:51:05.897Z,100.00
2023-05-17T01:53:39.400Z,100.00
2023-05-17T01:56:14.822Z,100.00
2023-05-17T01:58:47.554Z,100.00
2023-05-17T02:01:17.126Z,100.00
2023-05-17T02:03:47.718Z,100.00
2023-05-17T02:06:15.146Z,100.00
2023-05-17T02:08:42.644Z,100.00
2023-05-17T02:11:09.949Z,100.00
2023-05-17T02:13:37.221Z,100.00
2023-05-17T02:16:04.818Z,100.00
2023-05-17T02:18:36.083Z,100.00
2023-05-17T02:21:04.248Z,100.00
2023-05-17T02:23:31.606Z,100.00
2023-05-17T02:25:58.880Z,100.00
2023-05-17T02:28:27.796Z,100.00
2023-05-17T02:30:56.576Z,100.00
2023-05-17T02:33:24.104Z,100.00
2023-05-17T02:35:52.043Z,100.00
2023-05-17T02:38:20.171Z,100.00
2023-05-17T02:40:50.690Z,100.00
2023-05-17T02:43:18.025Z,100.00
2023-05-17T02:45:45.674Z,100.00
2023-05-17T02:48:13.763Z,100.00
2023-05-17T02:50:41.728Z,100.00
2023-05-17T02:53:09.056Z,100.00
2023-05-17T02:55:36.800Z,100.00
2023-05-17T02:58:04.597Z,100.00
2023-05-17T03:00:32.760Z,100.00
2023-05-17T03:03:00.373Z,100.00
2023-05-17T03:05:28.040Z,100.00
2023-05-17T03:07:55.672Z,100.00
2023-05-17T03:10:23.473Z,100.00
2023-05-17T03:12:53.866Z,100.00
2023-05-17T03:15:23.953Z,100.00
2023-05-17T03:17:51.456Z,100.00
2023-05-17T03:20:19.138Z,100.00
2023-05-17T03:22:48.390Z,100.00
2023-05-17T03:25:15.908Z,100.00
2023-05-17T03:27:43.365Z,100.00
2023-05-17T03:30:11.950Z,100.00
2023-05-17T03:32:40.727Z,100.00
2023-05-17T03:35:08.817Z,100.00
2023-05-17T03:37:37.641Z,100.00
2023-05-17T03:40:06.475Z,100.00
2023-05-17T03:42:33.847Z,100.00
2023-05-17T03:45:01.515Z,100.00
2023-05-17T03:47:28.869Z,100.00
2023-05-17T03:49:59.318Z,100.00
2023-05-17T03:52:26.731Z,100.00
2023-05-17T03:54:54.368Z,100.00
2023-05-17T03:57:22.344Z,100.00
2023-05-17T03:59:49.938Z,100.00
2023-05-17T04:02:20.090Z,100.00
2023-05-17T04:04:53.501Z,100.00
2023-05-17T04:07:21.910Z,100.00
2023-05-17T04:09:49.236Z,100.00
2023-05-17T04:12:16.609Z,100.00
2023-05-17T04:14:44.706Z,100.00
2023-05-17T04:17:12.114Z,100.00
2023-05-17T04:19:39.934Z,100.00
2023-05-17T04:22:08.248Z,100.00
2023-05-17T04:24:38.604Z,100.00
2023-05-17T04:27:06.994Z,100.00
2023-05-17T04:29:35.692Z,100.00
2023-05-17T04:32:03.255Z,100.00
2023-05-17T04:34:32.072Z,100.00
2023-05-17T04:37:01.228Z,100.00
2023-05-17T04:39:30.853Z,100.00
2023-05-17T04:41:58.708Z,100.00
2023-05-17T04:44:27.314Z,100.00
2023-05-17T04:46:55.458Z,100.00
2023-05-17T04:49:25.325Z,100.00
2023-05-17T04:51:53.495Z,100.00
2023-05-17T04:54:21.114Z,100.00
2023-05-17T04:56:49.377Z,100.00
2023-05-17T04:59:25.672Z,100.00
2023-05-17T05:01:53.126Z,100.00
2023-05-17T05:04:20.647Z,100.00
2023-05-17T05:06:49.326Z,100.00
2023-05-17T05:09:17.187Z,100.00
2023-05-17T05:11:45.353Z,100.00
2023-05-17T05:14:13.316Z,100.00
2023-05-17T05:16:41.120Z,100.00
2023-05-17T05:19:11.740Z,100.00
2023-05-17T05:21:43.433Z,100.00
2023-05-17T05:24:11.089Z,100.00
2023-05-17T05:26:38.439Z,100.00
2023-05-17T05:29:08.077Z,100.00
2023-05-17T05:31:36.699Z,100.00
2023-05-17T05:34:05.381Z,100.00
2023-05-17T05:36:33.089Z,100.00
2023-05-17T05:39:07.292Z,100.00
2023-05-17T05:41:36.851Z,100.00
2023-05-17T05:44:06.498Z,100.00
2023-05-17T05:46:33.921Z,100.00
2023-05-17T05:49:03.248Z,100.00
2023-05-17T05:51:32.651Z,100.00
2023-05-17T05:54:01.441Z,100.00
2023-05-17T05:56:29.227Z,100.00
2023-05-17T05:58:58.104Z,100.00
2023-05-17T06:01:25.935Z,100.00
2023-05-17T06:03:53.354Z,100.00
2023-05-17T06:06:20.891Z,100.00
2023-05-17T06:08:48.409Z,100.00
2023-05-17T06:11:15.791Z,100.00
2023-05-17T06:13:43.054Z,100.00
2023-05-17T06:16:10.555Z,100.00
2023-05-17T06:18:40.084Z,100.00
2023-05-17T06:21:07.805Z,100.00
2023-05-17T06:23:35.092Z,100.00
2023-05-17T06:26:02.519Z,100.00
2023-05-17T06:28:29.947Z,100.00
2023-05-17T06:30:57.352Z,100.00
2023-05-17T06:33:24.734Z,100.00
2023-05-17T06:35:56.841Z,100.00
2023-05-17T06:38:25.093Z,100.00
2023-05-17T06:40:54.428Z,100.00
2023-05-17T06:43:22.643Z,100.00
2023-05-17T06:45:50.435Z,100.00
2023-05-17T06:48:17.918Z,100.00
2023-05-17T06:50:45.715Z,100.00
2023-05-17T06:53:12.947Z,100.00
2023-05-17T06:55:43.522Z,99.12
2023-05-17T06:58:10.826Z,100.00
2023-05-17T07:00:38.208Z,100.00
2023-05-17T07:03:05.862Z,100.00
2023-05-17T07:05:33.684Z,100.00
2023-05-17T07:08:01.585Z,99.27
2023-05-17T07:10:29.014Z,98.94
2023-05-17T07:12:57.908Z,98.98
2023-05-17T07:15:27.372Z,98.69
2023-05-17T07:17:56.757Z,96.80
2023-05-17T07:20:24.218Z,96.41
2023-05-17T07:22:51.739Z,96.33
2023-05-17T07:25:21.100Z,96.25
2023-05-17T07:27:48.402Z,95.00
2023-05-17T07:30:15.748Z,94.24
2023-05-17T07:32:43.287Z,94.16
2023-05-17T07:35:10.781Z,91.14
2023-05-17T07:37:38.118Z,90.60
2023-05-17T07:40:08.435Z,89.76
2023-05-17T07:42:38.792Z,91.35
2023-05-17T07:45:06.702Z,92.23
2023-05-17T07:47:36.938Z,91.84
2023-05-17T07:50:04.876Z,85.98
2023-05-17T07:52:32.120Z,92.56
2023-05-17T07:54:59.656Z,92.74
2023-05-17T07:57:27.465Z,91.45
2023-05-17T07:59:54.764Z,92.32
2023-05-17T08:02:22.126Z,92.03
2023-05-17T08:04:49.787Z,93.29
2023-05-17T08:07:19.641Z,92.96
2023-05-17T08:09:46.999Z,91.32
2023-05-17T08:12:17.114Z,91.87
2023-05-17T08:14:44.456Z,92.65
2023-05-17T08:17:11.690Z,92.21
2023-05-17T08:19:39.240Z,91.83
2023-05-17T08:22:06.929Z,92.52
2023-05-17T08:24:34.299Z,93.41
2023-05-17T08:27:02.272Z,92.85
2023-05-17T08:29:29.598Z,93.23
2023-05-17T08:31:57.279Z,92.62
2023-05-17T08:34:24.744Z,92.59
2023-05-17T08:36:53.576Z,92.77
2023-05-17T08:39:21.252Z,92.73
2023-05-17T08:41:48.715Z,93.29
2023-05-17T08:44:17.658Z,92.72
2023-05-17T08:46:53.293Z,93.48
2023-05-17T08:49:22.873Z,92.86
2023-05-17T08:51:53.326Z,93.70
2023-05-17T08:54:20.664Z,94.27
2023-05-17T08:56:52.584Z,95.30
2023-05-17T08:59:20.565Z,95.83
2023-05-17T09:01:51.097Z,96.21
2023-05-17T09:04:18.920Z,96.20
2023-05-17T09:06:46.448Z,95.80
2023-05-17T09:09:13.912Z,95.17
2023-05-17T09:11:42.837Z,95.09
2023-05-17T09:14:10.269Z,94.35
2023-05-17T09:16:38.427Z,94.64
2023-05-17T09:19:09.032Z,94.33
2023-05-17T09:21:37.062Z,91.25
2023-05-17T09:24:08.098Z,92.73
2023-05-17T09:26:44.645Z,89.96
2023-05-17T09:29:13.630Z,91.59
2023-05-17T09:31:44.857Z,91.21
2023-05-17T09:34:12.448Z,88.50
2023-05-17T09:36:44.083Z,88.36
2023-05-17T09:39:13.175Z,86.67
2023-05-17T09:41:47.917Z,86.51
2023-05-17T09:44:19.509Z,84.91
2023-05-17T09:46:48.436Z,85.90
2023-05-17T09:49:17.498Z,86.35
2023-05-17T09:51:47.629Z,86.69
2023-05-17T09:54:15.035Z,88.29
2023-05-17T09:56:43.530Z,88.43
2023-05-17T09:59:15.795Z,88.36
2023-05-17T10:01:45.272Z,89.18
2023-05-17T10:04:14.455Z,90.33
2023-05-17T10:06:49.761Z,91.36
2023-05-17T10:09:23.009Z,92.53
2023-05-17T10:11:53.268Z,94.82
2023-05-17T10:14:27.409Z,95.13
2023-05-17T10:16:56.324Z,95.98
2023-05-17T10:19:25.225Z,96.82
2023-05-17T10:21:53.413Z,96.75
2023-05-17T10:24:22.508Z,97.96
2023-05-17T10:26:54.056Z,96.52
2023-05-17T10:29:21.576Z,96.17
2023-05-17T10:31:53.221Z,94.84
2023-05-17T10:34:21.130Z,93.81
2023-05-17T10:36:52.614Z,94.34
2023-05-17T10:39:22.240Z,92.83
2023-05-17T10:41:53.003Z,90.00
2023-05-17T10:44:22.024Z,89.40
2023-05-17T10:46:57.375Z,87.09
2023-05-17T10:49:27.603Z,86.24
2023-05-17T10:51:57.437Z,85.60
2023-05-17T10:54:35.936Z,82.86
2023-05-17T10:57:08.805Z,83.36
2023-05-17T10:59:55.447Z,82.38
2023-05-17T11:02:24.462Z,79.41
2023-05-17T11:04:53.916Z,78.01
2023-05-17T11:07:40.946Z,72.69
2023-05-17T11:10:12.499Z,80.07
2023-05-17T11:12:43.124Z,81.43
2023-05-17T11:15:15.585Z,80.17
2023-05-17T11:17:42.906Z,81.71
2023-05-17T11:20:35.536Z,78.22
2023-05-17T11:23:07.902Z,80.17
2023-05-17T11:25:43.048Z,81.35
2023-05-17T11:28:20.047Z,79.39
2023-05-17T11:30:52.109Z,80.40
2023-05-17T11:33:33.279Z,80.43
2023-05-17T11:36:19.570Z,77.01
2023-05-17T11:39:09.242Z,76.82
2023-05-17T11:41:45.134Z,77.02
2023-05-17T11:44:13.520Z,75.91
2023-05-17T11:46:41.769Z,76.15
2023-05-17T11:49:11.009Z,74.79
2023-05-17T11:51:40.790Z,74.45
2023-05-17T11:54:10.053Z,73.38
2023-05-17T11:56:43.556Z,74.03
2023-05-17T11:59:11.555Z,72.76
2023-05-17T12:01:48.060Z,71.00
2023-05-17T12:04:26.037Z,70.20
2023-05-17T12:06:56.854Z,71.74
2023-05-17T12:09:24.397Z,65.08
2023-05-17T12:11:51.954Z,70.64
2023-05-17T12:14:20.623Z,69.24
2023-05-17T12:16:53.106Z,69.80
2023-05-17T12:19:22.574Z,70.72
2023-05-17T12:21:50.359Z,70.78
2023-05-17T12:24:18.340Z,71.00
2023-05-17T12:26:47.279Z,71.23
2023-05-17T12:29:19.552Z,71.67
2023-05-17T12:31:50.409Z,70.41
2023-05-17T12:34:18.566Z,71.44
2023-05-17T12:36:46.783Z,70.99
2023-05-17T12:39:15.729Z,71.06
2023-05-17T12:41:43.770Z,71.10
2023-05-17T12:44:15.972Z,73.77
2023-05-17T12:46:45.200Z,75.04
2023-05-17T12:49:12.733Z,77.56
2023-05-17T12:51:44.464Z,78.68
2023-05-17T12:54:13.895Z,79.61
2023-05-17T12:56:45.171Z,79.66
2023-05-17T12:59:20.984Z,80.53
2023-05-17T13:01:55.752Z,80.56
2023-05-17T13:04:35.356Z,82.05
2023-05-17T13:07:04.911Z,82.36
2023-05-17T13:09:34.730Z,82.54
2023-05-17T13:12:07.229Z,81.40
2023-05-17T13:14:48.829Z,80.98
2023-05-17T13:17:23.241Z,83.08
2023-05-17T13:19:51.361Z,81.12
2023-05-17T13:22:19.540Z,81.23
2023-05-17T13:24:47.112Z,79.88
2023-05-17T13:27:14.677Z,78.36
2023-05-17T13:29:43.695Z,78.63
2023-05-17T13:32:13.747Z,78.70
2023-05-17T13:34:43.450Z,78.32
2023-05-17T13:37:12.666Z,77.82
2023-05-17T13:39:43.403Z,77.47
2023-05-17T13:42:12.963Z,77.34
2023-05-17T13:44:42.657Z,75.49
2023-05-17T13:47:10.108Z,74.07
2023-05-17T13:49:38.352Z,73.23
2023-05-17T13:52:09.238Z,73.50
2023-05-17T13:54:37.914Z,71.66
2023-05-17T13:57:07.321Z,72.25
2023-05-17T13:59:34.732Z,72.60
2023-05-17T14:02:02.502Z,72.22
2023-05-17T14:04:29.914Z,72.28
2023-05-17T14:06:57.619Z,71.42
2023-05-17T14:09:25.351Z,72.23
2023-05-17T14:11:53.624Z,75.25
2023-05-17T14:14:20.977Z,77.51
2023-05-17T14:16:48.270Z,78.63
2023-05-17T14:19:15.727Z,79.49
2023-05-17T14:21:43.259Z,80.94
2023-05-17T14:24:10.578Z,81.33
2023-05-17T14:26:38.082Z,80.37
2023-05-17T14:29:08.164Z,82.40
2023-05-17T14:31:38.596Z,80.98
2023-05-17T14:34:06.632Z,81.86
2023-05-17T14:36:36.428Z,81.01
2023-05-17T14:39:04.477Z,79.42
2023-05-17T14:41:34.797Z,80.85
2023-05-17T14:44:02.117Z,80.56
2023-05-17T14:46:29.444Z,79.99
2023-05-17T14:48:56.849Z,79.45
2023-05-17T14:51:25.145Z,78.02
2023-05-17T14:53:54.405Z,76.98
2023-05-17T14:56:22.509Z,77.35
2023-05-17T14:58:50.135Z,75.92
2023-05-17T15:01:17.994Z,75.94
2023-05-17T15:03:45.557Z,75.23
2023-05-17T15:06:15.571Z,74.33
2023-05-17T15:08:44.958Z,74.44
2023-05-17T16:57:33.481Z,80.96
2023-05-17T17:00:01.295Z,80.78
2023-05-17T17:02:28.952Z,81.59
2023-05-17T17:04:56.748Z,82.01
2023-05-17T17:07:24.178Z,80.30
2023-05-17T17:09:51.618Z,80.41
2023-05-17T17:12:24.844Z,80.32
2023-05-17T17:14:54.158Z,81.28
2023-05-17T17:17:22.027Z,80.74
2023-05-17T17:19:49.397Z,80.97
2023-05-17T17:22:16.822Z,81.00
2023-05-17T17:24:44.514Z,82.04
2023-05-17T17:27:11.882Z,81.99
2023-05-17T17:29:39.396Z,81.52
2023-05-17T17:32:07.528Z,81.67
2023-05-17T17:34:35.468Z,81.99
2023-05-17T17:37:02.862Z,81.90
2023-05-17T17:39:30.487Z,82.33
2023-05-17T17:41:57.755Z,82.82
2023-05-17T17:44:25.254Z,82.82
2023-05-17T17:46:52.684Z,83.36
2023-05-17T17:49:20.531Z,84.09
2023-05-17T17:51:47.912Z,84.13
2023-05-17T17:54:15.340Z,82.79
2023-05-17T17:56:42.825Z,82.91
2023-05-17T17:59:10.338Z,83.33
2023-05-17T18:01:38.267Z,83.45
2023-05-17T18:04:06.285Z,84.27
2023-05-17T18:06:33.855Z,84.09
2023-05-17T18:09:01.202Z,83.12
2023-05-17T18:11:29.663Z,82.78
2023-05-17T18:13:57.216Z,83.00
2023-05-17T18:16:24.943Z,83.45
2023-05-17T18:18:52.473Z,83.94
2023-05-17T18:21:19.816Z,84.27
2023-05-17T18:23:47.111Z,84.42
2023-05-17T18:26:14.521Z,85.05
2023-05-17T18:28:43.173Z,85.86
2023-05-17T18:31:10.984Z,86.06
2023-05-17T18:33:38.370Z,86.47
2023-05-17T18:36:06.078Z,87.14
2023-05-17T18:38:35.962Z,87.34
2023-05-17T18:41:03.288Z,87.14
2023-05-17T18:43:31.732Z,88.22
2023-05-17T18:45:59.264Z,88.00
2023-05-17T18:48:27.956Z,88.57
2023-05-17T18:50:57.447Z,88.31
2023-05-17T18:53:24.902Z,88.59
2023-05-17T18:55:52.307Z,89.27
2023-05-17T18:58:19.620Z,90.16
2023-05-17T19:00:48.604Z,91.61
2023-05-17T19:03:16.075Z,91.91
2023-05-17T19:05:43.579Z,92.78
2023-05-17T19:08:10.969Z,93.34
2023-05-17T19:10:38.413Z,94.33
2023-05-17T19:13:06.939Z,94.10
2023-05-17T19:15:34.414Z,95.33
2023-05-17T19:18:01.814Z,95.96
2023-05-17T19:20:30.729Z,96.26
2023-05-17T19:22:58.322Z,96.68
2023-05-17T19:25:25.769Z,97.32
2023-05-17T19:27:53.125Z,96.38
2023-05-17T19:30:20.687Z,96.15
2023-05-17T19:32:48.415Z,95.46
2023-05-17T19:35:15.785Z,95.42
2023-05-17T19:37:43.212Z,95.63
2023-05-17T19:40:11.178Z,95.79
2023-05-17T19:42:39.689Z,95.52
2023-05-17T19:45:14.553Z,95.50
2023-05-17T19:47:44.964Z,95.92
2023-05-17T19:50:12.475Z,95.97
2023-05-17T19:52:39.979Z,95.40
2023-05-17T19:55:08.017Z,95.22
2023-05-17T19:57:38.297Z,95.06
2023-05-17T20:00:06.352Z,95.29
2023-05-17T20:02:33.640Z,95.56
2023-05-17T20:05:03.556Z,95.11
2023-05-17T20:07:33.078Z,94.38
2023-05-17T20:10:00.566Z,94.54
2023-05-17T20:12:27.954Z,94.29
2023-05-17T20:14:56.801Z,94.54
2023-05-17T20:17:24.225Z,94.74
2023-05-17T20:19:51.906Z,94.27
2023-05-17T20:22:20.225Z,93.70
2023-05-17T20:24:48.023Z,94.27
2023-05-17T20:27:15.578Z,93.67
2023-05-17T20:29:42.931Z,94.37
2023-05-17T20:32:10.566Z,94.68
2023-05-17T20:34:38.031Z,94.92
2023-05-17T20:37:06.044Z,94.81
2023-05-17T20:39:33.378Z,95.10
2023-05-17T20:42:01.411Z,94.99
2023-05-17T20:44:28.894Z,95.25
2023-05-17T20:46:56.952Z,95.28
2023-05-17T20:49:24.475Z,95.56
2023-05-17T20:51:51.869Z,95.72
2023-05-17T20:54:19.237Z,95.49
2023-05-17T20:56:46.524Z,95.84
2023-05-17T20:59:14.123Z,95.51
2023-05-17T21:01:41.986Z,96.29
2023-05-17T21:04:11.597Z,96.03
2023-05-17T21:06:39.190Z,96.09
2023-05-17T21:09:06.885Z,96.29
2023-05-17T21:11:34.433Z,96.65
2023-05-17T21:14:02.072Z,95.82
2023-05-17T21:16:31.948Z,95.41
2023-05-17T21:18:59.637Z,95.05
2023-05-17T21:21:27.106Z,95.34
2023-05-17T21:23:54.803Z,95.11
2023-05-17T21:26:23.274Z,95.64
2023-05-17T21:28:51.365Z,95.06
2023-05-17T21:31:19.004Z,94.49
2023-05-17T21:33:48.253Z,94.92
2023-05-17T21:36:15.908Z,94.14
2023-05-17T21:38:44.685Z,94.34
2023-05-17T21:41:12.036Z,93.06
2023-05-17T21:43:39.624Z,94.16
2023-05-17T21:46:06.943Z,93.52
2023-05-17T21:48:34.645Z,93.61
2023-05-17T21:51:02.231Z,93.75
2023-05-17T21:53:29.647Z,93.96
2023-05-17T21:56:02.665Z,93.73
2023-05-17T21:58:32.129Z,94.12
2023-05-17T22:00:59.903Z,93.96
2023-05-17T22:03:27.615Z,93.51
2023-05-17T22:05:55.061Z,94.47
2023-05-17T22:08:25.138Z,95.16
2023-05-17T22:10:57.187Z,95.15
2023-05-17T22:13:27.317Z,95.67
2023-05-17T22:15:57.839Z,95.74
2023-05-17T22:18:27.138Z,95.88
2023-05-17T22:20:59.174Z,95.60
2023-05-17T22:23:27.799Z,96.01
2023-05-17T22:25:57.349Z,95.66
2023-05-17T22:28:24.869Z,95.75
2023-05-17T22:30:54.194Z,96.57
2023-05-17T22:33:24.362Z,97.08
2023-05-17T22:35:53.618Z,96.99
2023-05-17T22:38:23.649Z,97.19
2023-05-17T22:40:53.711Z,97.57
2023-05-17T22:43:25.919Z,97.23
2023-05-17T22:45:53.393Z,98.07
2023-05-17T22:48:21.623Z,98.66
2023-05-17T22:50:54.719Z,99.21
2023-05-17T22:53:22.056Z,99.51
2023-05-17T22:55:49.410Z,100.00
2023-05-17T22:58:17.009Z,99.40
2023-05-17T23:00:44.735Z,98.62
2023-05-17T23:03:12.438Z,98.46
2023-05-17T23:05:40.398Z,98.63
2023-05-17T23:08:08.022Z,99.13
2023-05-17T23:10:38.369Z,98.96
2023-05-17T23:13:05.925Z,99.02
2023-05-17T23:15:34.642Z,99.69
2023-05-17T23:18:02.038Z,99.27
2023-05-17T23:20:29.855Z,99.29
2023-05-17T23:22:59.623Z,99.38
2023-05-17T23:25:29.007Z,99.07
2023-05-17T23:27:59.848Z,99.37
2023-05-17T23:30:27.948Z,98.82
2023-05-17T23:32:55.625Z,99.13
2023-05-17T23:35:26.033Z,99.09
2023-05-17T23:37:53.551Z,98.90
2023-05-17T23:40:20.977Z,98.29
2023-05-17T23:42:52.529Z,98.22
2023-05-17T23:45:20.197Z,98.06
2023-05-17T23:47:47.856Z,98.26
2023-05-17T23:50:15.591Z,98.30
2023-05-17T23:52:43.588Z,98.49
2023-05-17T23:55:12.162Z,98.89
2023-05-17T23:57:40.127Z,99.04
